sensor_id;sensor_type;location;lat;lon;timestamp;P1;durP1;ratioP1;P2;durP2;ratioP2
52940;SDS011;62001;53.366;6.636;2022-12-11T00:00:15;83.27;;;28.23;;
52940;SDS011;62001;53.366;6.636;2022-12-11T00:02:54;90.90;;;30.17;;
52940;SDS011;62001;53.366;6.636;2022-12-11T00:05:20;92.83;;;29.87;;
52940;SDS011;62001;53.366;6.636;2022-12-11T00:07:52;89.63;;;29.83;;
52940;SDS011;62001;53.366;6.636;2022-12-11T00:10:29;77.73;;;26.67;;
52940;SDS011;62001;53.366;6.636;2022-12-11T00:13:01;68.83;;;25.83;;
52940;SDS011;62001;53.366;6.636;2022-12-11T00:15:32;73.23;;;24.67;;
52940;SDS011;62001;53.366;6.636;2022-12-11T00:17:58;76.77;;;26.80;;
52940;SDS011;62001;53.366;6.636;2022-12-11T00:20:24;93.37;;;27.77;;
52940;SDS011;62001;53.366;6.636;2022-12-11T00:22:51;76.57;;;27.17;;
52940;SDS011;62001;53.366;6.636;2022-12-11T00:25:20;82.93;;;28.10;;
52940;SDS011;62001;53.366;6.636;2022-12-11T00:27:46;74.73;;;26.40;;
52940;SDS011;62001;53.366;6.636;2022-12-11T00:30:17;76.70;;;27.13;;
52940;SDS011;62001;53.366;6.636;2022-12-11T00:35:24;87.57;;;26.57;;
52940;SDS011;62001;53.366;6.636;2022-12-11T00:37:58;77.03;;;26.90;;
52940;SDS011;62001;53.366;6.636;2022-12-11T00:40:34;90.13;;;26.73;;
52940;SDS011;62001;53.366;6.636;2022-12-11T00:43:09;79.23;;;26.00;;
52940;SDS011;62001;53.366;6.636;2022-12-11T00:45:44;77.43;;;25.57;;
52940;SDS011;62001;53.366;6.636;2022-12-11T00:48:20;72.43;;;24.63;;
52940;SDS011;62001;53.366;6.636;2022-12-11T00:50:49;72.67;;;25.43;;
52940;SDS011;62001;53.366;6.636;2022-12-11T00:53:18;75.87;;;24.53;;
52940;SDS011;62001;53.366;6.636;2022-12-11T00:55:56;80.93;;;25.73;;
52940;SDS011;62001;53.366;6.636;2022-12-11T01:01:20;68.50;;;19.52;;
52940;SDS011;62001;53.366;6.636;2022-12-11T01:03:50;86.50;;;26.33;;
52940;SDS011;62001;53.366;6.636;2022-12-11T01:06:28;87.07;;;28.43;;
52940;SDS011;62001;53.366;6.636;2022-12-11T01:08:54;88.00;;;27.93;;
52940;SDS011;62001;53.366;6.636;2022-12-11T01:11:40;88.87;;;27.40;;
52940;SDS011;62001;53.366;6.636;2022-12-11T01:14:07;83.87;;;25.77;;
52940;SDS011;62001;53.366;6.636;2022-12-11T01:16:43;87.57;;;25.53;;
52940;SDS011;62001;53.366;6.636;2022-12-11T01:19:14;84.20;;;26.27;;
52940;SDS011;62001;53.366;6.636;2022-12-11T01:21:41;85.17;;;25.80;;
52940;SDS011;62001;53.366;6.636;2022-12-11T01:24:16;85.93;;;25.87;;
52940;SDS011;62001;53.366;6.636;2022-12-11T01:26:49;79.77;;;26.07;;
52940;SDS011;62001;53.366;6.636;2022-12-11T01:29:21;77.13;;;26.20;;
52940;SDS011;62001;53.366;6.636;2022-12-11T01:31:56;80.77;;;24.80;;
52940;SDS011;62001;53.366;6.636;2022-12-11T01:37:30;85.23;;;26.00;;
52940;SDS011;62001;53.366;6.636;2022-12-11T01:40:05;75.83;;;25.93;;
52940;SDS011;62001;53.366;6.636;2022-12-11T01:42:49;71.80;;;25.83;;
52940;SDS011;62001;53.366;6.636;2022-12-11T01:45:31;78.83;;;24.90;;
52940;SDS011;62001;53.366;6.636;2022-12-11T01:48:18;82.13;;;26.63;;
52940;SDS011;62001;53.366;6.636;2022-12-11T01:50:48;77.30;;;24.93;;
52940;SDS011;62001;53.366;6.636;2022-12-11T01:53:22;70.43;;;24.57;;
52940;SDS011;62001;53.366;6.636;2022-12-11T01:56:00;73.23;;;24.83;;
52940;SDS011;62001;53.366;6.636;2022-12-11T01:58:32;67.95;;;21.08;;
52940;SDS011;62001;53.366;6.636;2022-12-11T02:01:34;75.87;;;24.30;;
52940;SDS011;62001;53.366;6.636;2022-12-11T02:04:01;80.63;;;25.33;;
52940;SDS011;62001;53.366;6.636;2022-12-11T02:06:37;64.03;;;22.90;;
52940;SDS011;62001;53.366;6.636;2022-12-11T02:09:09;64.60;;;21.92;;
52940;SDS011;62001;53.366;6.636;2022-12-11T02:29:42;68.60;;;23.07;;
52940;SDS011;62001;53.366;6.636;2022-12-11T02:32:17;61.70;;;22.70;;
52940;SDS011;62001;53.366;6.636;2022-12-11T02:35:34;67.57;;;23.13;;
52940;SDS011;62001;53.366;6.636;2022-12-11T02:38:03;72.50;;;23.53;;
52940;SDS011;62001;53.366;6.636;2022-12-11T02:40:34;62.17;;;21.60;;
52940;SDS011;62001;53.366;6.636;2022-12-11T02:45:31;77.07;;;22.57;;
52940;SDS011;62001;53.366;6.636;2022-12-11T02:48:05;76.53;;;23.93;;
52940;SDS011;62001;53.366;6.636;2022-12-11T02:50:34;76.33;;;24.70;;
52940;SDS011;62001;53.366;6.636;2022-12-11T02:53:02;76.37;;;25.03;;
52940;SDS011;62001;53.366;6.636;2022-12-11T02:55:31;71.07;;;24.03;;
52940;SDS011;62001;53.366;6.636;2022-12-11T02:58:04;78.27;;;24.77;;
52940;SDS011;62001;53.366;6.636;2022-12-11T03:00:36;72.23;;;24.67;;
52940;SDS011;62001;53.366;6.636;2022-12-11T03:03:08;81.97;;;25.30;;
52940;SDS011;62001;53.366;6.636;2022-12-11T03:05:35;79.93;;;25.57;;
52940;SDS011;62001;53.366;6.636;2022-12-11T03:08:01;82.83;;;26.97;;
52940;SDS011;62001;53.366;6.636;2022-12-11T03:10:36;81.23;;;26.07;;
52940;SDS011;62001;53.366;6.636;2022-12-11T03:13:02;80.60;;;27.07;;
52940;SDS011;62001;53.366;6.636;2022-12-11T03:15:33;89.53;;;27.13;;
52940;SDS011;62001;53.366;6.636;2022-12-11T03:18:17;88.93;;;25.97;;
52940;SDS011;62001;53.366;6.636;2022-12-11T03:20:48;86.63;;;26.27;;
52940;SDS011;62001;53.366;6.636;2022-12-11T03:23:27;91.50;;;27.17;;
52940;SDS011;62001;53.366;6.636;2022-12-11T03:26:00;105.43;;;29.00;;
52940;SDS011;62001;53.366;6.636;2022-12-11T03:31:04;93.87;;;28.80;;
52940;SDS011;62001;53.366;6.636;2022-12-11T03:33:38;85.50;;;27.00;;
52940;SDS011;62001;53.366;6.636;2022-12-11T03:36:16;99.80;;;30.43;;
52940;SDS011;62001;53.366;6.636;2022-12-11T03:38:55;99.70;;;29.60;;
52940;SDS011;62001;53.366;6.636;2022-12-11T03:41:32;98.90;;;28.73;;
52940;SDS011;62001;53.366;6.636;2022-12-11T03:44:04;88.90;;;28.40;;
52940;SDS011;62001;53.366;6.636;2022-12-11T03:46:33;84.93;;;27.13;;
52940;SDS011;62001;53.366;6.636;2022-12-11T03:49:22;95.37;;;28.00;;
52940;SDS011;62001;53.366;6.636;2022-12-11T03:51:51;106.10;;;29.80;;
52940;SDS011;62001;53.366;6.636;2022-12-11T03:54:21;96.45;;;28.45;;
52940;SDS011;62001;53.366;6.636;2022-12-11T03:56:48;104.27;;;29.83;;
52940;SDS011;62001;53.366;6.636;2022-12-11T03:59:17;90.93;;;27.63;;
52940;SDS011;62001;53.366;6.636;2022-12-11T04:01:50;93.63;;;28.53;;
52940;SDS011;62001;53.366;6.636;2022-12-11T04:04:19;65.97;;;21.63;;
52940;SDS011;62001;53.366;6.636;2022-12-11T04:06:51;90.37;;;27.87;;
52940;SDS011;62001;53.366;6.636;2022-12-11T04:09:20;88.70;;;26.80;;
52940;SDS011;62001;53.366;6.636;2022-12-11T04:11:53;83.33;;;27.17;;
52940;SDS011;62001;53.366;6.636;2022-12-11T04:14:21;92.30;;;26.87;;
52940;SDS011;62001;53.366;6.636;2022-12-11T04:17:06;90.80;;;26.60;;
52940;SDS011;62001;53.366;6.636;2022-12-11T04:19:34;85.70;;;27.60;;
52940;SDS011;62001;53.366;6.636;2022-12-11T04:22:19;84.53;;;26.00;;
52940;SDS011;62001;53.366;6.636;2022-12-11T04:25:05;77.33;;;25.70;;
52940;SDS011;62001;53.366;6.636;2022-12-11T04:27:40;82.30;;;25.80;;
52940;SDS011;62001;53.366;6.636;2022-12-11T04:30:20;83.07;;;26.20;;
52940;SDS011;62001;53.366;6.636;2022-12-11T04:32:48;58.75;;;19.30;;
52940;SDS011;62001;53.366;6.636;2022-12-11T04:35:18;75.67;;;25.60;;
52940;SDS011;62001;53.366;6.636;2022-12-11T04:37:47;80.80;;;25.40;;
52940;SDS011;62001;53.366;6.636;2022-12-11T04:40:17;73.33;;;25.47;;
52940;SDS011;62001;53.366;6.636;2022-12-11T04:42:46;87.95;;;26.90;;
52940;SDS011;62001;53.366;6.636;2022-12-11T04:45:12;79.03;;;26.40;;
52940;SDS011;62001;53.366;6.636;2022-12-11T04:47:39;87.37;;;27.40;;
52940;SDS011;62001;53.366;6.636;2022-12-11T04:50:09;84.05;;;25.55;;
52940;SDS011;62001;53.366;6.636;2022-12-11T04:52:39;79.10;;;26.45;;
52940;SDS011;62001;53.366;6.636;2022-12-11T04:55:08;84.63;;;25.87;;
52940;SDS011;62001;53.366;6.636;2022-12-11T04:57:40;81.83;;;26.23;;
52940;SDS011;62001;53.366;6.636;2022-12-11T05:00:10;75.23;;;25.00;;
52940;SDS011;62001;53.366;6.636;2022-12-11T05:02:39;84.57;;;26.23;;
52940;SDS011;62001;53.366;6.636;2022-12-11T05:05:11;76.13;;;24.97;;
52940;SDS011;62001;53.366;6.636;2022-12-11T05:07:37;77.20;;;25.30;;
52940;SDS011;62001;53.366;6.636;2022-12-11T05:10:06;78.73;;;25.67;;
52940;SDS011;62001;53.366;6.636;2022-12-11T05:12:38;75.03;;;24.20;;
52940;SDS011;62001;53.366;6.636;2022-12-11T05:15:07;78.20;;;26.23;;
52940;SDS011;62001;53.366;6.636;2022-12-11T05:17:33;85.43;;;26.73;;
52940;SDS011;62001;53.366;6.636;2022-12-11T05:19:59;85.10;;;25.67;;
52940;SDS011;62001;53.366;6.636;2022-12-11T05:22:28;80.50;;;26.17;;
52940;SDS011;62001;53.366;6.636;2022-12-11T05:24:55;76.17;;;25.43;;
52940;SDS011;62001;53.366;6.636;2022-12-11T05:27:21;73.20;;;24.13;;
52940;SDS011;62001;53.366;6.636;2022-12-11T05:29:47;75.47;;;25.17;;
52940;SDS011;62001;53.366;6.636;2022-12-11T05:32:13;78.70;;;26.10;;
52940;SDS011;62001;53.366;6.636;2022-12-11T05:34:45;75.47;;;23.27;;
52940;SDS011;62001;53.366;6.636;2022-12-11T05:37:10;70.77;;;24.73;;
52940;SDS011;62001;53.366;6.636;2022-12-11T05:39:37;73.67;;;24.47;;
52940;SDS011;62001;53.366;6.636;2022-12-11T05:42:03;77.37;;;25.97;;
52940;SDS011;62001;53.366;6.636;2022-12-11T05:44:29;76.50;;;26.13;;
52940;SDS011;62001;53.366;6.636;2022-12-11T05:46:55;78.13;;;25.13;;
52940;SDS011;62001;53.366;6.636;2022-12-11T05:49:39;75.87;;;25.60;;
52940;SDS011;62001;53.366;6.636;2022-12-11T05:52:26;76.67;;;25.43;;
52940;SDS011;62001;53.366;6.636;2022-12-11T05:55:01;72.83;;;23.93;;
52940;SDS011;62001;53.366;6.636;2022-12-11T05:57:38;70.03;;;24.60;;
52940;SDS011;62001;53.366;6.636;2022-12-11T06:00:07;77.97;;;26.13;;
52940;SDS011;62001;53.366;6.636;2022-12-11T06:02:38;67.95;;;23.73;;
52940;SDS011;62001;53.366;6.636;2022-12-11T06:05:12;79.60;;;26.00;;
52940;SDS011;62001;53.366;6.636;2022-12-11T06:07:43;78.67;;;24.77;;
52940;SDS011;62001;53.366;6.636;2022-12-11T06:10:12;74.27;;;24.90;;
52940;SDS011;62001;53.366;6.636;2022-12-11T06:12:51;74.43;;;25.70;;
52940;SDS011;62001;53.366;6.636;2022-12-11T06:15:20;78.60;;;26.73;;
52940;SDS011;62001;53.366;6.636;2022-12-11T06:17:46;76.53;;;26.07;;
52940;SDS011;62001;53.366;6.636;2022-12-11T06:20:12;73.97;;;24.63;;
52940;SDS011;62001;53.366;6.636;2022-12-11T06:22:38;81.00;;;26.07;;
52940;SDS011;62001;53.366;6.636;2022-12-11T06:25:04;74.10;;;26.80;;
52940;SDS011;62001;53.366;6.636;2022-12-11T06:27:34;75.27;;;26.53;;
52940;SDS011;62001;53.366;6.636;2022-12-11T06:30:00;77.87;;;26.53;;
52940;SDS011;62001;53.366;6.636;2022-12-11T06:32:26;69.90;;;25.10;;
52940;SDS011;62001;53.366;6.636;2022-12-11T06:34:55;77.03;;;25.97;;
52940;SDS011;62001;53.366;6.636;2022-12-11T06:37:21;79.77;;;25.70;;
52940;SDS011;62001;53.366;6.636;2022-12-11T06:39:46;78.60;;;25.87;;
52940;SDS011;62001;53.366;6.636;2022-12-11T06:42:12;73.93;;;26.03;;
52940;SDS011;62001;53.366;6.636;2022-12-11T06:44:44;72.50;;;25.87;;
52940;SDS011;62001;53.366;6.636;2022-12-11T06:47:10;74.77;;;25.30;;
52940;SDS011;62001;53.366;6.636;2022-12-11T06:49:39;76.47;;;25.67;;
52940;SDS011;62001;53.366;6.636;2022-12-11T06:52:05;68.63;;;25.57;;
52940;SDS011;62001;53.366;6.636;2022-12-11T06:54:32;74.47;;;26.63;;
52940;SDS011;62001;53.366;6.636;2022-12-11T06:57:01;80.23;;;26.53;;
52940;SDS011;62001;53.366;6.636;2022-12-11T06:59:32;71.67;;;25.43;;
52940;SDS011;62001;53.366;6.636;2022-12-11T07:01:58;73.17;;;25.27;;
52940;SDS011;62001;53.366;6.636;2022-12-11T07:04:30;65.60;;;24.90;;
52940;SDS011;62001;53.366;6.636;2022-12-11T07:06:59;67.23;;;26.27;;
52940;SDS011;62001;53.366;6.636;2022-12-11T07:09:35;73.17;;;26.80;;
52940;SDS011;62001;53.366;6.636;2022-12-11T07:12:13;76.17;;;25.87;;
52940;SDS011;62001;53.366;6.636;2022-12-11T07:14:40;78.78;;;26.15;;
52940;SDS011;62001;53.366;6.636;2022-12-11T07:17:11;82.07;;;25.80;;
52940;SDS011;62001;53.366;6.636;2022-12-11T07:19:37;80.20;;;25.97;;
52940;SDS011;62001;53.366;6.636;2022-12-11T07:22:04;78.37;;;24.97;;
52940;SDS011;62001;53.366;6.636;2022-12-11T07:24:30;71.90;;;26.00;;
52940;SDS011;62001;53.366;6.636;2022-12-11T07:26:56;78.40;;;26.33;;
52940;SDS011;62001;53.366;6.636;2022-12-11T07:29:22;70.80;;;25.77;;
52940;SDS011;62001;53.366;6.636;2022-12-11T07:31:48;75.93;;;25.73;;
52940;SDS011;62001;53.366;6.636;2022-12-11T07:34:14;70.50;;;25.53;;
52940;SDS011;62001;53.366;6.636;2022-12-11T07:36:41;66.27;;;24.70;;
52940;SDS011;62001;53.366;6.636;2022-12-11T07:39:07;70.63;;;26.27;;
52940;SDS011;62001;53.366;6.636;2022-12-11T07:41:35;67.43;;;25.13;;
52940;SDS011;62001;53.366;6.636;2022-12-11T07:44:01;68.33;;;25.33;;
52940;SDS011;62001;53.366;6.636;2022-12-11T07:46:28;69.90;;;24.60;;
52940;SDS011;62001;53.366;6.636;2022-12-11T07:48:56;67.57;;;24.37;;
52940;SDS011;62001;53.366;6.636;2022-12-11T07:51:25;67.50;;;24.03;;
52940;SDS011;62001;53.366;6.636;2022-12-11T07:53:53;70.32;;;26.02;;
52940;SDS011;62001;53.366;6.636;2022-12-11T07:56:21;63.10;;;22.80;;
52940;SDS011;62001;53.366;6.636;2022-12-11T07:58:47;67.43;;;24.03;;
52940;SDS011;62001;53.366;6.636;2022-12-11T08:01:23;67.27;;;23.70;;
52940;SDS011;62001;53.366;6.636;2022-12-11T08:03:51;63.20;;;23.93;;
52940;SDS011;62001;53.366;6.636;2022-12-11T08:06:17;65.50;;;24.33;;
52940;SDS011;62001;53.366;6.636;2022-12-11T08:11:19;63.10;;;22.67;;
52940;SDS011;62001;53.366;6.636;2022-12-11T08:13:49;63.67;;;23.67;;
52940;SDS011;62001;53.366;6.636;2022-12-11T08:16:15;59.30;;;23.10;;
52940;SDS011;62001;53.366;6.636;2022-12-11T08:18:43;62.20;;;23.83;;
52940;SDS011;62001;53.366;6.636;2022-12-11T08:21:11;65.17;;;23.33;;
52940;SDS011;62001;53.366;6.636;2022-12-11T08:23:39;63.33;;;22.97;;
52940;SDS011;62001;53.366;6.636;2022-12-11T08:26:15;65.77;;;23.60;;
52940;SDS011;62001;53.366;6.636;2022-12-11T08:28:49;69.97;;;23.80;;
52940;SDS011;62001;53.366;6.636;2022-12-11T08:31:19;70.77;;;24.90;;
52940;SDS011;62001;53.366;6.636;2022-12-11T08:33:46;61.47;;;22.90;;
52940;SDS011;62001;53.366;6.636;2022-12-11T08:36:17;63.53;;;22.43;;
52940;SDS011;62001;53.366;6.636;2022-12-11T08:38:44;66.03;;;23.90;;
52940;SDS011;62001;53.366;6.636;2022-12-11T08:41:12;59.90;;;21.73;;
52940;SDS011;62001;53.366;6.636;2022-12-11T08:43:43;58.97;;;22.57;;
52940;SDS011;62001;53.366;6.636;2022-12-11T08:46:10;62.07;;;21.97;;
52940;SDS011;62001;53.366;6.636;2022-12-11T08:48:40;65.45;;;22.63;;
52940;SDS011;62001;53.366;6.636;2022-12-11T08:51:12;63.27;;;21.93;;
52940;SDS011;62001;53.366;6.636;2022-12-11T08:53:40;60.70;;;22.47;;
52940;SDS011;62001;53.366;6.636;2022-12-11T08:56:10;57.93;;;21.50;;
52940;SDS011;62001;53.366;6.636;2022-12-11T08:58:44;67.57;;;22.37;;
52940;SDS011;62001;53.366;6.636;2022-12-11T09:01:15;47.25;;;16.73;;
52940;SDS011;62001;53.366;6.636;2022-12-11T09:03:48;61.87;;;21.80;;
52940;SDS011;62001;53.366;6.636;2022-12-11T09:06:19;66.23;;;23.10;;
52940;SDS011;62001;53.366;6.636;2022-12-11T09:08:47;61.83;;;22.80;;
52940;SDS011;62001;53.366;6.636;2022-12-11T09:11:18;60.60;;;22.42;;
52940;SDS011;62001;53.366;6.636;2022-12-11T09:13:48;63.80;;;22.35;;
52940;SDS011;62001;53.366;6.636;2022-12-11T09:16:22;60.43;;;20.73;;
52940;SDS011;62001;53.366;6.636;2022-12-11T09:18:49;62.80;;;21.40;;
52940;SDS011;62001;53.366;6.636;2022-12-11T09:21:18;55.70;;;21.57;;
52940;SDS011;62001;53.366;6.636;2022-12-11T09:23:51;64.83;;;21.50;;
52940;SDS011;62001;53.366;6.636;2022-12-11T09:26:19;59.93;;;21.97;;
52940;SDS011;62001;53.366;6.636;2022-12-11T09:28:47;61.47;;;21.50;;
52940;SDS011;62001;53.366;6.636;2022-12-11T09:31:20;59.33;;;20.07;;
52940;SDS011;62001;53.366;6.636;2022-12-11T09:33:52;59.60;;;21.43;;
52940;SDS011;62001;53.366;6.636;2022-12-11T09:36:23;61.23;;;21.93;;
52940;SDS011;62001;53.366;6.636;2022-12-11T09:38:53;65.30;;;22.43;;
52940;SDS011;62001;53.366;6.636;2022-12-11T09:46:59;66.47;;;22.83;;
52940;SDS011;62001;53.366;6.636;2022-12-11T09:49:41;64.93;;;21.97;;
52940;SDS011;62001;53.366;6.636;2022-12-11T09:52:10;66.47;;;23.23;;
52940;SDS011;62001;53.366;6.636;2022-12-11T09:55:30;65.53;;;23.67;;
52940;SDS011;62001;53.366;6.636;2022-12-11T10:00:40;70.23;;;24.17;;
52940;SDS011;62001;53.366;6.636;2022-12-11T10:09:32;66.50;;;24.27;;
52940;SDS011;62001;53.366;6.636;2022-12-11T10:12:27;72.63;;;25.73;;
52940;SDS011;62001;53.366;6.636;2022-12-11T10:15:23;69.43;;;24.37;;
52940;SDS011;62001;53.366;6.636;2022-12-11T10:18:01;71.67;;;24.13;;
52940;SDS011;62001;53.366;6.636;2022-12-11T10:20:33;72.43;;;23.88;;
52940;SDS011;62001;53.366;6.636;2022-12-11T10:23:08;65.47;;;24.27;;
52940;SDS011;62001;53.366;6.636;2022-12-11T10:28:31;77.47;;;26.50;;
52940;SDS011;62001;53.366;6.636;2022-12-11T10:31:04;69.73;;;24.60;;
52940;SDS011;62001;53.366;6.636;2022-12-11T10:36:26;71.93;;;25.73;;
52940;SDS011;62001;53.366;6.636;2022-12-11T10:38:55;77.53;;;25.75;;
52940;SDS011;62001;53.366;6.636;2022-12-11T10:41:22;80.23;;;25.83;;
52940;SDS011;62001;53.366;6.636;2022-12-11T10:43:54;80.30;;;26.50;;
52940;SDS011;62001;53.366;6.636;2022-12-11T10:46:21;81.83;;;26.47;;
52940;SDS011;62001;53.366;6.636;2022-12-11T10:48:55;85.20;;;27.50;;
52940;SDS011;62001;53.366;6.636;2022-12-11T10:51:44;70.77;;;26.80;;
52940;SDS011;62001;53.366;6.636;2022-12-11T10:54:16;83.67;;;27.50;;
52940;SDS011;62001;53.366;6.636;2022-12-11T10:57:05;86.40;;;28.10;;
52940;SDS011;62001;53.366;6.636;2022-12-11T11:02:05;71.53;;;26.83;;
52940;SDS011;62001;53.366;6.636;2022-12-11T11:04:41;75.33;;;26.33;;
52940;SDS011;62001;53.366;6.636;2022-12-11T11:09:35;70.83;;;25.90;;
52940;SDS011;62001;53.366;6.636;2022-12-11T11:12:01;69.23;;;25.93;;
52940;SDS011;62001;53.366;6.636;2022-12-11T11:14:27;73.97;;;26.73;;
52940;SDS011;62001;53.366;6.636;2022-12-11T11:16:54;71.87;;;26.33;;
52940;SDS011;62001;53.366;6.636;2022-12-11T11:19:26;68.73;;;26.23;;
52940;SDS011;62001;53.366;6.636;2022-12-11T11:22:00;77.57;;;27.50;;
52940;SDS011;62001;53.366;6.636;2022-12-11T11:27:12;68.53;;;26.37;;
52940;SDS011;62001;53.366;6.636;2022-12-11T11:29:55;75.70;;;26.43;;
52940;SDS011;62001;53.366;6.636;2022-12-11T11:32:44;70.23;;;25.93;;
52940;SDS011;62001;53.366;6.636;2022-12-11T11:37:36;72.47;;;27.23;;
52940;SDS011;62001;53.366;6.636;2022-12-11T11:40:20;69.17;;;26.67;;
52940;SDS011;62001;53.366;6.636;2022-12-11T11:45:46;76.87;;;28.60;;
52940;SDS011;62001;53.366;6.636;2022-12-11T11:51:15;71.37;;;25.97;;
52940;SDS011;62001;53.366;6.636;2022-12-11T11:53:42;75.67;;;26.97;;
52940;SDS011;62001;53.366;6.636;2022-12-11T11:56:22;71.97;;;26.37;;
52940;SDS011;62001;53.366;6.636;2022-12-11T11:59:01;78.10;;;27.43;;
52940;SDS011;62001;53.366;6.636;2022-12-11T12:01:39;74.43;;;27.47;;
52940;SDS011;62001;53.366;6.636;2022-12-11T12:04:06;70.97;;;27.50;;
52940;SDS011;62001;53.366;6.636;2022-12-11T12:15:14;73.23;;;27.80;;
52940;SDS011;62001;53.366;6.636;2022-12-11T12:47:38;69.47;;;28.30;;
52940;SDS011;62001;53.366;6.636;2022-12-11T12:50:17;67.93;;;27.43;;
52940;SDS011;62001;53.366;6.636;2022-12-11T12:52:46;70.30;;;28.07;;
52940;SDS011;62001;53.366;6.636;2022-12-11T12:57:48;72.27;;;28.07;;
52940;SDS011;62001;53.366;6.636;2022-12-11T13:03:14;71.77;;;26.97;;
52940;SDS011;62001;53.366;6.636;2022-12-11T13:06:03;71.30;;;26.63;;
52940;SDS011;62001;53.366;6.636;2022-12-11T13:11:06;66.07;;;27.35;;
52940;SDS011;62001;53.366;6.636;2022-12-11T13:21:24;61.27;;;26.50;;
52940;SDS011;62001;53.366;6.636;2022-12-11T13:24:23;62.53;;;25.60;;
52940;SDS011;62001;53.366;6.636;2022-12-11T13:26:50;70.17;;;26.33;;
52940;SDS011;62001;53.366;6.636;2022-12-11T13:29:29;65.30;;;26.97;;
52940;SDS011;62001;53.366;6.636;2022-12-11T13:32:00;66.43;;;25.87;;
52940;SDS011;62001;53.366;6.636;2022-12-11T13:34:49;67.73;;;28.73;;
52940;SDS011;62001;53.366;6.636;2022-12-11T13:37:37;70.33;;;27.97;;
52940;SDS011;62001;53.366;6.636;2022-12-11T13:40:06;71.57;;;26.43;;
52940;SDS011;62001;53.366;6.636;2022-12-11T13:42:48;72.73;;;28.20;;
52940;SDS011;62001;53.366;6.636;2022-12-11T13:45:26;67.33;;;27.57;;
52940;SDS011;62001;53.366;6.636;2022-12-11T13:48:03;64.73;;;26.67;;
52940;SDS011;62001;53.366;6.636;2022-12-11T13:50:53;65.30;;;26.60;;
52940;SDS011;62001;53.366;6.636;2022-12-11T13:53:20;67.53;;;27.07;;
52940;SDS011;62001;53.366;6.636;2022-12-11T13:55:54;68.23;;;27.50;;
52940;SDS011;62001;53.366;6.636;2022-12-11T13:58:25;71.57;;;27.37;;
52940;SDS011;62001;53.366;6.636;2022-12-11T14:00:58;66.93;;;28.53;;
52940;SDS011;62001;53.366;6.636;2022-12-11T14:03:53;72.10;;;28.50;;
52940;SDS011;62001;53.366;6.636;2022-12-11T14:06:23;67.17;;;27.13;;
52940;SDS011;62001;53.366;6.636;2022-12-11T14:08:52;69.00;;;26.80;;
52940;SDS011;62001;53.366;6.636;2022-12-11T14:11:22;68.20;;;27.73;;
52940;SDS011;62001;53.366;6.636;2022-12-11T14:14:00;66.33;;;27.40;;
52940;SDS011;62001;53.366;6.636;2022-12-11T14:16:29;68.30;;;27.90;;
52940;SDS011;62001;53.366;6.636;2022-12-11T14:18:57;67.67;;;26.23;;
52940;SDS011;62001;53.366;6.636;2022-12-11T14:21:30;64.00;;;25.93;;
52940;SDS011;62001;53.366;6.636;2022-12-11T14:23:57;66.13;;;26.17;;
52940;SDS011;62001;53.366;6.636;2022-12-11T14:26:28;72.53;;;27.63;;
52940;SDS011;62001;53.366;6.636;2022-12-11T14:28:56;69.47;;;27.70;;
52940;SDS011;62001;53.366;6.636;2022-12-11T14:31:26;66.53;;;27.30;;
52940;SDS011;62001;53.366;6.636;2022-12-11T14:36:39;70.70;;;28.17;;
52940;SDS011;62001;53.366;6.636;2022-12-11T14:39:13;65.70;;;26.97;;
52940;SDS011;62001;53.366;6.636;2022-12-11T14:44:16;72.00;;;28.27;;
52940;SDS011;62001;53.366;6.636;2022-12-11T14:46:46;72.07;;;26.90;;
52940;SDS011;62001;53.366;6.636;2022-12-11T14:49:21;75.03;;;26.77;;
52940;SDS011;62001;53.366;6.636;2022-12-11T14:51:58;75.43;;;29.17;;
52940;SDS011;62001;53.366;6.636;2022-12-11T14:54:32;76.47;;;28.67;;
52940;SDS011;62001;53.366;6.636;2022-12-11T14:57:02;72.00;;;27.40;;
52940;SDS011;62001;53.366;6.636;2022-12-11T14:59:31;75.50;;;27.47;;
52940;SDS011;62001;53.366;6.636;2022-12-11T15:02:27;72.47;;;28.23;;
52940;SDS011;62001;53.366;6.636;2022-12-11T15:07:56;79.97;;;28.10;;
52940;SDS011;62001;53.366;6.636;2022-12-11T15:10:26;74.17;;;29.00;;
52940;SDS011;62001;53.366;6.636;2022-12-11T15:12:52;71.93;;;28.47;;
52940;SDS011;62001;53.366;6.636;2022-12-11T15:15:19;78.67;;;27.93;;
52940;SDS011;62001;53.366;6.636;2022-12-11T15:17:45;72.57;;;27.87;;
52940;SDS011;62001;53.366;6.636;2022-12-11T15:20:20;77.90;;;29.43;;
52940;SDS011;62001;53.366;6.636;2022-12-11T15:22:48;68.37;;;28.03;;
52940;SDS011;62001;53.366;6.636;2022-12-11T15:25:25;77.53;;;29.37;;
52940;SDS011;62001;53.366;6.636;2022-12-11T15:27:54;72.00;;;27.23;;
52940;SDS011;62001;53.366;6.636;2022-12-11T15:36:49;73.70;;;28.27;;
52940;SDS011;62001;53.366;6.636;2022-12-11T15:38:47;79.57;;;29.50;;
52940;SDS011;62001;53.366;6.636;2022-12-11T15:41:13;72.83;;;29.20;;
52940;SDS011;62001;53.366;6.636;2022-12-11T15:43:41;76.27;;;29.43;;
52940;SDS011;62001;53.366;6.636;2022-12-11T15:46:08;72.97;;;28.33;;
52940;SDS011;62001;53.366;6.636;2022-12-11T15:48:34;73.57;;;28.60;;
52940;SDS011;62001;53.366;6.636;2022-12-11T15:51:00;80.80;;;28.47;;
52940;SDS011;62001;53.366;6.636;2022-12-11T15:53:27;75.63;;;28.27;;
52940;SDS011;62001;53.366;6.636;2022-12-11T15:55:53;77.57;;;29.77;;
52940;SDS011;62001;53.366;6.636;2022-12-11T15:58:21;77.23;;;29.63;;
52940;SDS011;62001;53.366;6.636;2022-12-11T16:00:48;70.67;;;29.13;;
52940;SDS011;62001;53.366;6.636;2022-12-11T16:03:15;70.17;;;28.23;;
52940;SDS011;62001;53.366;6.636;2022-12-11T16:05:42;73.73;;;29.10;;
52940;SDS011;62001;53.366;6.636;2022-12-11T16:08:11;67.80;;;27.43;;
52940;SDS011;62001;53.366;6.636;2022-12-11T16:10:39;75.32;;;29.08;;
52940;SDS011;62001;53.366;6.636;2022-12-11T16:13:09;71.38;;;28.23;;
52940;SDS011;62001;53.366;6.636;2022-12-11T16:15:38;77.70;;;31.40;;
52940;SDS011;62001;53.366;6.636;2022-12-11T16:18:07;77.87;;;30.20;;
52940;SDS011;62001;53.366;6.636;2022-12-11T16:20:36;78.30;;;30.57;;
52940;SDS011;62001;53.366;6.636;2022-12-11T16:23:04;79.90;;;31.63;;
52940;SDS011;62001;53.366;6.636;2022-12-11T16:25:30;84.27;;;30.27;;
52940;SDS011;62001;53.366;6.636;2022-12-11T16:27:57;81.10;;;31.03;;
52940;SDS011;62001;53.366;6.636;2022-12-11T16:30:25;85.23;;;31.30;;
52940;SDS011;62001;53.366;6.636;2022-12-11T16:32:52;74.00;;;28.47;;
52940;SDS011;62001;53.366;6.636;2022-12-11T16:35:19;76.97;;;29.77;;
52940;SDS011;62001;53.366;6.636;2022-12-11T16:37:49;72.57;;;29.60;;
52940;SDS011;62001;53.366;6.636;2022-12-11T16:40:18;79.17;;;30.17;;
52940;SDS011;62001;53.366;6.636;2022-12-11T16:42:44;69.37;;;29.47;;
52940;SDS011;62001;53.366;6.636;2022-12-11T16:45:11;71.10;;;28.50;;
52940;SDS011;62001;53.366;6.636;2022-12-11T16:47:41;72.83;;;28.87;;
52940;SDS011;62001;53.366;6.636;2022-12-11T16:50:07;76.33;;;29.33;;
52940;SDS011;62001;53.366;6.636;2022-12-11T16:52:34;74.10;;;28.83;;
52940;SDS011;62001;53.366;6.636;2022-12-11T16:55:00;69.60;;;27.43;;
52940;SDS011;62001;53.366;6.636;2022-12-11T16:57:26;63.33;;;27.20;;
52940;SDS011;62001;53.366;6.636;2022-12-11T16:59:52;70.60;;;28.40;;
52940;SDS011;62001;53.366;6.636;2022-12-11T17:02:18;70.47;;;27.07;;
52940;SDS011;62001;53.366;6.636;2022-12-11T17:04:44;69.20;;;27.23;;